ID part_num drawing_num core_shape industry_design smd_or_th core_back_l_in_a core_back_l_mm_a core_pair_w_in_b core_pair_w_mm_b core_pair_cpl_in_c core_pair_cpl_mm_c leg_length_in leg_length_mm window_wide_in window_wide_mm window_height_in window_height_mm horzn_vert num_terminals num_winding_sects plastic_material active moq matching_cover_dwg_num date_entered
1 B-EER2818-1V-16-1-PH3 B-EER2818-1V-16-1-PH3.pdf EER ER2818 1.00 29.00 1.00 18.00 0.00 11.00 V 16 1 PH3 Y N 06/08/2020
2 B-EER2824-4V-12-1-PH3 B-EER2824-4V-12-1-PH3.pdf EER ER2824 1.00 29.00 1.00 24.00 1.00 15.00 V 12 1 PH3 Y N 06/08/2020
3 B-EER2828-1H-12-1-PH3 B-EER2828-1H-12-1-PH3.pdf EER ER28 1.00 29.00 1.00 28.00 1.00 19.00 H 12 1 PH3 Y N 06/08/2020
4 B-EER2828-3V-10-1-PH3 B-EER2828-3V-10-1-PH3.pdf EER ER28 1.00 29.00 1.00 28.00 1.00 19.00 V 10 1 PH3 Y N 06/08/2020
5 B-EER2828-7V-18-1-PH2 B-EER2828-7V-18-1-PH2.pdf EER ER28 1.00 29.00 1.00 28.00 1.00 19.00 V 18 1 PH3 Y N 06/08/2020
6 B-EER2828-8H-10-1-PH2 B-EER2828-8H-10-1-PH2.pdf EER ER28 1.00 29.00 1.00 28.00 1.00 19.00 H 10 1 PH2 Y N 06/08/2020
7 B-EER2828H-12-2-PH2 B-EER2828H-12-2-PH2.pdf EER ER28 1.00 29.00 1.00 28.00 1.00 19.00 H 12 2 PH2 Y N 06/08/2020
8 B-EER2828H-12-3-PH2 B-EER2828H-12-3-PH2.pdf EER ER28 1.00 29.00 1.00 28.00 1.00 19.00 H 12 3 PH2 Y N 06/08/2020
9 B-EER2834-2V-10-1-PH3 B-EER2834-2V-10-1-PH3.pdf EER ER28L 1.00 29.00 1.00 34.00 1.00 25.00 V 10 1 PH3 Y N 06/08/2020
10 B-EER2834H-12-1-PH3 B-EER2834H-12-1-PH3.pdf EER ER28L 1.00 29.00 1.00 34.00 1.00 25.00 H 12 1 PH3 Y N 06/08/2020
11 B-EER2834H-15-1-PH2 B-EER2834H-15-1-PH2.pdf EER ER28L 1.00 29.00 1.00 34.00 1.00 25.00 H 15 1 PH2 Y N 06/08/2020
12 B-EER2834V-10-1-PET B-EER2834V-10-1-PET.pdf EER ER28L 1.00 29.00 1.00 34.00 1.00 25.00 V 10 1 PET Y N 06/08/2020
13 B-EER2834V-18-1-PH2 B-EER2834V-18-1-PH2.pdf EER ER28L 1.00 29.00 1.00 34.00 1.00 25.00 V 18 1 PH2 Y N 06/08/2020
14 B-EER3541H-12-2-PH2 B-EER3541H-12-2-PH2.pdf EER ER35 1.00 35.00 2.00 40.00 1.00 30.00 H 12 2 PH2 Y N 06/08/2020
15 B-EER3541H-12-3-PH2 B-EER3541H-12-3-PH2.pdf EER ER35 1.00 35.00 2.00 40.00 1.00 30.00 H 12 3 PH2 Y N BC-EER3541H-14-2-PH2.pdf 06/08/2020
16 B-EER3541H-14-2-PH2 B-EER3541H-14-2-PH2.pdf EER ER35 1.00 35.00 2.00 40.00 1.00 30.00 H 14 2 PH2 Y N BC-EER3541H-14-2-PH2.pdf 06/08/2020
17 B-EER3541V-14-1-PH2 B-EER3541V-14-1-PH2.pdf EER ER35 1.00 35.00 2.00 40.00 1.00 30.00 V 14 1 PH2 Y N 06/08/2020
18 B-EER4045H-16-1-PH3 B-EER4045H-16-1-PH3.pdf EER ER40 2.00 40.00 2.00 45.00 1.00 31.00 H 16 1 PH3 Y N 06/08/2020
19 EER ER42 2.00 42.00 2.00 45.00 1.00 31.00 06/08/2020
20 EER ER48 2.00 48.00 2.00 42.00 1.00 29.00 06/08/2020
21 B-EER4249H-16-2-PH3 B-EER4249H-16-2-PH3.pdf EER ER4249 2.00 42.00 2.00 49.00 1.00 37.00 H 16 2 PH3 Y N 06/08/2020
22 B-EER4955V-18-2-PH3 B-EER4955V-18-2-PH3.pdf EER ER4955 2.00 49.00 2.00 55.00 2.00 38.00 V 18 2 PH3 Y N 06/08/2020
23 B-EER4949 EER ER49 2.00 50.00 2.00 50.00 1.00 35.00 06/08/2020
24 ETD29 ETD ETD29 1.00 31.00 1.00 32.00 1.00 21.00 06/08/2020
25 B-ETD34V-14-1-PET B-ETD34V-14-1-PET.pdf ETD ETD34 1.00 35.00 1.00 35.00 1.00 24.00 V 14 1 06/08/2020